createdAt,value
2019-04-11T00:00:23.584Z,8.90
2019-04-11T00:02:53.216Z,8.90
2019-04-11T00:05:23.030Z,8.80
2019-04-11T00:07:52.244Z,8.80
2019-04-11T00:10:21.391Z,8.70
2019-04-11T00:12:50.575Z,8.70
2019-04-11T00:15:20.301Z,8.60
2019-04-11T00:17:50.141Z,8.60
2019-04-11T00:20:20.069Z,8.40
2019-04-11T00:22:49.944Z,8.40
2019-04-11T00:25:19.805Z,8.30
2019-04-11T00:27:48.951Z,8.20
2019-04-11T00:30:18.036Z,8.20
2019-04-11T00:32:46.629Z,8.10
2019-04-11T00:35:15.489Z,8.00
2019-04-11T00:37:45.127Z,8.00
2019-04-11T00:40:15.135Z,7.90
2019-04-11T00:42:45.015Z,7.90
2019-04-11T00:45:15.808Z,7.90
2019-04-11T00:47:45.001Z,7.90
2019-04-11T00:50:14.850Z,8.00
2019-04-11T00:52:43.496Z,7.80
2019-04-11T00:55:13.388Z,7.80
2019-04-11T00:57:43.145Z,7.70
2019-04-11T01:00:13.122Z,7.60
2019-04-11T01:02:43.243Z,7.50
2019-04-11T01:05:13.020Z,7.50
2019-04-11T01:07:42.820Z,7.40
2019-04-11T01:10:11.865Z,7.40
2019-04-11T01:12:40.878Z,7.30
2019-04-11T01:15:11.351Z,7.30
2019-04-11T01:17:39.903Z,7.30
2019-04-11T01:20:09.041Z,7.30
2019-04-11T01:22:38.374Z,7.30
2019-04-11T01:25:08.404Z,7.20
2019-04-11T01:27:39.364Z,7.10
2019-04-11T01:30:09.900Z,7.10
2019-04-11T01:32:38.774Z,7.00
2019-04-11T01:35:07.555Z,7.00
2019-04-11T01:37:37.741Z,7.00
2019-04-11T01:40:07.778Z,7.00
2019-04-11T01:42:37.528Z,7.00
2019-04-11T01:45:07.499Z,7.00
2019-04-11T01:47:53.316Z,7.00
2019-04-11T01:50:23.473Z,7.00
2019-04-11T01:52:52.980Z,6.90
2019-04-11T01:55:21.601Z,6.90
2019-04-11T01:57:50.155Z,6.90
2019-04-11T02:00:28.040Z,6.80
2019-04-11T02:02:59.066Z,6.80
2019-04-11T02:05:29.438Z,6.70
2019-04-11T02:07:58.717Z,6.70
2019-04-11T02:10:28.589Z,6.70
2019-04-11T02:12:57.717Z,6.60
2019-04-11T02:15:26.916Z,6.60
2019-04-11T02:17:55.656Z,6.60
2019-04-11T02:20:24.943Z,6.60
2019-04-11T02:22:59.097Z,6.60
2019-04-11T02:25:41.309Z,6.60
2019-04-11T02:28:10.656Z,6.60
2019-04-11T02:30:41.999Z,6.50
2019-04-11T02:33:13.508Z,6.50
2019-04-11T02:35:42.823Z,6.50
2019-04-11T02:38:14.110Z,6.40
2019-04-11T02:40:43.126Z,6.30
2019-04-11T02:43:13.268Z,6.30
2019-04-11T02:45:52.650Z,6.30
2019-04-11T02:48:13.720Z,6.30
2019-04-11T02:50:43.325Z,6.30
2019-04-11T02:53:12.560Z,6.30
2019-04-11T02:55:43.771Z,6.30
2019-04-11T02:58:12.587Z,6.30
2019-04-11T03:00:42.321Z,6.20
2019-04-11T03:03:12.874Z,6.20
2019-04-11T03:05:42.041Z,6.30
2019-04-11T03:08:15.697Z,6.30
2019-04-11T03:10:43.013Z,6.20
2019-04-11T03:13:12.664Z,6.10
2019-04-11T03:15:57.392Z,6.20
2019-04-11T03:18:24.635Z,6.20
2019-04-11T03:20:49.628Z,6.20
2019-04-11T03:23:16.489Z,6.10
2019-04-11T03:25:44.913Z,6.00
2019-04-11T03:28:19.206Z,6.00
2019-04-11T03:31:06.713Z,6.00
2019-04-11T03:38:36.811Z,6.00
2019-04-11T03:41:08.589Z,5.90
2019-04-11T03:43:32.896Z,5.90
2019-04-11T03:46:11.865Z,5.80
2019-04-11T03:48:32.982Z,5.80
2019-04-11T03:50:52.325Z,5.80
2019-04-11T03:53:23.476Z,5.90
2019-04-11T03:55:51.670Z,5.90
2019-04-11T03:58:21.810Z,5.90
2019-04-11T04:00:53.689Z,5.80
2019-04-11T04:03:22.318Z,5.80
2019-04-11T04:05:52.671Z,5.90
2019-04-11T04:08:22.446Z,5.90
2019-04-11T04:11:12.326Z,5.90
2019-04-11T04:13:45.394Z,5.80
2019-04-11T04:16:24.355Z,5.80
2019-04-11T04:19:05.301Z,5.80
2019-04-11T04:21:36.249Z,5.70
2019-04-11T04:24:08.520Z,5.70
2019-04-11T04:26:38.999Z,5.70
2019-04-11T04:29:07.559Z,5.70
2019-04-11T04:31:38.412Z,5.60
2019-04-11T04:34:07.243Z,5.50
2019-04-11T04:36:37.612Z,5.50
2019-04-11T04:39:06.594Z,5.50
2019-04-11T04:41:42.931Z,5.50
2019-04-11T04:44:08.423Z,5.50
2019-04-11T04:46:52.593Z,5.50
2019-04-11T04:49:08.819Z,5.50
2019-04-11T04:51:37.335Z,5.30
2019-04-11T04:54:06.062Z,5.20
2019-04-11T04:56:36.649Z,5.30
2019-04-11T04:59:06.982Z,5.30
2019-04-11T05:01:37.199Z,5.20
2019-04-11T05:04:06.832Z,5.20
2019-04-11T05:06:36.481Z,5.20
2019-04-11T05:09:06.655Z,5.30
2019-04-11T05:11:36.139Z,5.30
2019-04-11T05:14:05.297Z,5.30
2019-04-11T05:16:35.749Z,5.40
2019-04-11T05:19:04.580Z,5.40
2019-04-11T05:21:33.184Z,5.60
2019-04-11T05:24:02.094Z,5.60
2019-04-11T05:26:31.398Z,5.60
2019-04-11T05:29:00.611Z,5.70
2019-04-11T05:31:30.317Z,5.80
2019-04-11T05:33:59.387Z,5.90
2019-04-11T05:36:28.286Z,6.00
2019-04-11T05:38:56.864Z,6.00
2019-04-11T05:41:26.184Z,6.10
2019-04-11T05:43:55.708Z,6.10
2019-04-11T05:46:33.468Z,6.20
2019-04-11T05:49:09.287Z,6.30
2019-04-11T05:51:42.554Z,6.50
2019-04-11T05:54:09.526Z,6.60
2019-04-11T05:56:38.941Z,6.90
2019-04-11T05:59:16.813Z,7.20
2019-04-11T06:01:47.117Z,7.70
2019-04-11T06:04:23.314Z,8.50
2019-04-11T06:06:56.831Z,9.40
2019-04-11T06:09:30.249Z,10.30
2019-04-11T06:12:17.154Z,10.90
2019-04-11T06:14:47.338Z,11.50
2019-04-11T06:17:18.373Z,12.00
2019-04-11T06:20:02.123Z,12.30
2019-04-11T06:22:31.820Z,12.50
2019-04-11T06:25:09.146Z,12.60
2019-04-11T06:27:57.923Z,12.20
2019-04-11T06:30:28.413Z,12.10
2019-04-11T06:33:16.601Z,11.70
2019-04-11T06:35:52.451Z,11.20
2019-04-11T06:38:38.890Z,10.60
2019-04-11T06:41:14.747Z,10.30
2019-04-11T06:44:00.538Z,10.00
2019-04-11T06:46:53.910Z,9.60
2019-04-11T06:49:25.085Z,9.40
2019-04-11T06:52:00.737Z,9.50
2019-04-11T06:54:31.313Z,9.90
2019-04-11T06:57:01.303Z,10.70
2019-04-11T06:59:32.366Z,11.20
2019-04-11T07:02:08.912Z,11.40
2019-04-11T07:04:35.709Z,11.80
2019-04-11T07:07:06.516Z,11.80
2019-04-11T07:09:41.324Z,12.00
2019-04-11T07:12:15.606Z,12.10
2019-04-11T07:14:48.644Z,12.00
2019-04-11T07:17:36.873Z,11.80
2019-04-11T07:20:27.270Z,11.50
2019-04-11T07:23:13.634Z,11.10
2019-04-11T07:26:00.304Z,11.20
2019-04-11T07:28:31.512Z,11.40
2019-04-11T07:31:08.009Z,11.60
2019-04-11T07:33:38.233Z,11.60
2019-04-11T07:36:24.566Z,11.50
2019-04-11T07:39:07.874Z,11.50
2019-04-11T07:41:39.091Z,11.70
2019-04-11T07:44:10.425Z,11.80
2019-04-11T07:46:56.530Z,12.10
2019-04-11T07:49:38.584Z,12.40
2019-04-11T07:52:09.229Z,13.00
2019-04-11T07:54:38.889Z,13.40
2019-04-11T07:57:09.159Z,13.80
2019-04-11T07:59:55.875Z,14.60
2019-04-11T08:02:26.841Z,15.10
2019-04-11T08:04:57.673Z,15.00
2019-04-11T08:07:38.041Z,14.90
2019-04-11T08:10:15.959Z,15.10
2019-04-11T08:12:46.204Z,15.40
2019-04-11T08:15:33.487Z,16.00
2019-04-11T08:18:04.051Z,16.20
2019-04-11T08:20:53.279Z,16.70
2019-04-11T08:23:23.543Z,16.90
2019-04-11T08:25:59.920Z,17.00
2019-04-11T08:28:29.058Z,17.00
2019-04-11T08:31:11.180Z,17.00
2019-04-11T08:33:40.520Z,17.00
2019-04-11T08:36:13.753Z,16.80
2019-04-11T08:38:42.665Z,16.60
2019-04-11T08:41:29.540Z,16.40
2019-04-11T08:43:59.395Z,15.70
2019-04-11T08:46:39.234Z,15.20
2019-04-11T08:49:21.554Z,15.10
2019-04-11T08:51:51.691Z,14.80
2019-04-11T08:54:37.641Z,14.60
2019-04-11T08:57:07.529Z,14.70
2019-04-11T08:59:53.914Z,14.80
2019-04-11T09:02:22.684Z,14.70
2019-04-11T09:05:03.277Z,14.70
2019-04-11T09:07:25.412Z,14.60
2019-04-11T09:10:11.924Z,14.80
2019-04-11T09:12:42.718Z,14.90
2019-04-11T09:15:29.243Z,15.00
2019-04-11T09:18:05.666Z,14.90
2019-04-11T09:20:43.433Z,14.90
2019-04-11T09:23:12.002Z,15.00
2019-04-11T09:25:43.477Z,15.10
2019-04-11T09:28:29.125Z,15.20
2019-04-11T09:31:16.951Z,15.30
2019-04-11T09:34:03.799Z,15.20
2019-04-11T09:36:37.004Z,15.30
2019-04-11T09:39:28.856Z,15.30
2019-04-11T09:42:16.828Z,15.30
2019-04-11T09:44:47.338Z,15.30
2019-04-11T09:47:20.062Z,15.40
2019-04-11T09:49:56.198Z,15.40
2019-04-11T09:52:26.961Z,15.40
2019-04-11T09:55:09.321Z,15.40
2019-04-11T09:57:39.609Z,15.40
2019-04-11T10:00:16.498Z,15.30
2019-04-11T10:02:46.815Z,15.10
2019-04-11T10:05:20.135Z,14.90
2019-04-11T10:07:50.358Z,14.70
2019-04-11T10:10:33.148Z,14.60
2019-04-11T10:13:18.646Z,14.50
2019-04-11T10:15:57.719Z,14.30
2019-04-11T10:18:33.980Z,14.30
2019-04-11T10:21:01.283Z,14.40
2019-04-11T10:23:43.195Z,14.30
2019-04-11T10:26:11.831Z,14.30
2019-04-11T10:28:49.488Z,14.40
2019-04-11T10:31:18.472Z,14.40
2019-04-11T10:33:51.436Z,14.60
2019-04-11T10:36:25.236Z,14.60
2019-04-11T10:38:57.126Z,14.40
2019-04-11T10:41:28.457Z,14.40
2019-04-11T10:43:57.235Z,14.50
2019-04-11T10:46:33.477Z,14.40
2019-04-11T10:49:03.639Z,14.30
2019-04-11T10:51:33.871Z,14.20
2019-04-11T10:54:05.303Z,14.30
2019-04-11T10:56:37.366Z,14.40
2019-04-11T10:59:07.026Z,14.60
2019-04-11T11:01:53.895Z,14.70
2019-04-11T11:04:25.261Z,14.70
2019-04-11T11:06:55.876Z,14.50
2019-04-11T11:09:26.480Z,14.50
2019-04-11T11:12:12.763Z,14.40
2019-04-11T11:14:58.815Z,14.30
2019-04-11T11:18:12.684Z,14.40
2019-04-11T11:20:28.480Z,14.40
2019-04-11T11:22:56.920Z,14.30
2019-04-11T11:25:48.381Z,14.30
2019-04-11T11:28:15.922Z,14.30
2019-04-11T11:30:47.348Z,14.40
2019-04-11T11:33:16.611Z,14.50
2019-04-11T11:35:47.784Z,14.60
2019-04-11T11:38:28.744Z,14.70
2019-04-11T11:40:58.860Z,14.60
2019-04-11T11:43:29.281Z,14.60
2019-04-11T11:46:03.081Z,14.70
2019-04-11T11:48:47.276Z,14.60
2019-04-11T11:51:31.271Z,14.60
2019-04-11T11:54:05.174Z,14.70
2019-04-11T11:56:35.692Z,14.70
2019-04-11T11:59:09.192Z,14.90
2019-04-11T12:01:48.979Z,15.00
2019-04-11T12:04:16.962Z,15.00
2019-04-11T12:06:48.142Z,14.90
2019-04-11T12:09:26.655Z,14.90
2019-04-11T12:12:13.563Z,15.00
2019-04-11T12:15:01.374Z,14.80
2019-04-11T12:17:32.483Z,14.70
2019-04-11T12:20:09.762Z,14.70
2019-04-11T12:22:36.706Z,14.60
2019-04-11T12:25:25.442Z,14.60
2019-04-11T12:28:07.680Z,14.60
2019-04-11T12:30:45.316Z,14.50
2019-04-11T12:33:30.547Z,14.50
2019-04-11T12:36:09.968Z,14.50
2019-04-11T12:38:40.544Z,14.50
2019-04-11T12:41:13.303Z,14.60
2019-04-11T12:43:52.419Z,14.70
2019-04-11T12:46:40.650Z,14.80
2019-04-11T12:49:22.799Z,14.80
2019-04-11T12:52:08.970Z,14.80
2019-04-11T12:54:39.400Z,14.60
2019-04-11T12:57:25.863Z,14.40
2019-04-11T13:00:04.816Z,14.30
2019-04-11T13:02:51.042Z,14.30
2019-04-11T13:05:21.508Z,14.50
2019-04-11T13:08:07.372Z,14.40
2019-04-11T13:10:36.959Z,14.40
2019-04-11T13:13:07.339Z,14.20
2019-04-11T13:15:37.781Z,14.20
2019-04-11T13:18:08.512Z,14.20
2019-04-11T13:20:45.469Z,14.10
2019-04-11T13:23:15.741Z,13.90
2019-04-11T13:26:03.066Z,13.80
2019-04-11T13:28:33.615Z,13.80
2019-04-11T13:31:20.236Z,13.90
2019-04-11T13:33:50.026Z,13.90
2019-04-11T13:36:36.287Z,13.80
2019-04-11T13:39:06.864Z,13.80
2019-04-11T13:41:42.919Z,13.80
2019-04-11T13:44:13.568Z,13.60
2019-04-11T13:46:52.955Z,13.50
2019-04-11T13:49:29.121Z,13.40
2019-04-11T13:52:15.608Z,13.60
2019-04-11T13:55:04.288Z,13.70
2019-04-11T13:57:50.612Z,13.80
2019-04-11T14:00:39.280Z,13.90
2019-04-11T14:03:25.548Z,13.90
2019-04-11T14:05:56.640Z,13.80
2019-04-11T14:08:42.628Z,13.60
2019-04-11T14:11:13.370Z,13.50
2019-04-11T14:13:43.547Z,13.50
2019-04-11T14:16:13.922Z,13.50
2019-04-11T14:18:47.348Z,13.30
2019-04-11T14:21:20.032Z,13.30
2019-04-11T14:23:53.078Z,13.30
2019-04-11T14:26:28.907Z,13.30
2019-04-11T14:28:58.195Z,13.30
2019-04-11T14:31:46.241Z,13.30
2019-04-11T14:34:19.164Z,13.40
2019-04-11T14:36:49.331Z,13.30
2019-04-11T14:39:19.413Z,13.30
2019-04-11T14:42:07.545Z,13.20
2019-04-11T14:44:40.631Z,13.20
2019-04-11T14:47:26.527Z,13.20
2019-04-11T14:49:57.033Z,13.10
2019-04-11T14:52:33.384Z,13.10
2019-04-11T14:55:01.922Z,13.00
2019-04-11T14:57:34.791Z,12.90
2019-04-11T15:00:06.687Z,12.90
2019-04-11T15:02:37.115Z,12.90
2019-04-11T15:05:16.624Z,13.00
2019-04-11T15:07:46.086Z,13.00
2019-04-11T15:10:17.535Z,13.00
2019-04-11T15:12:48.164Z,12.90
2019-04-11T15:15:29.968Z,12.90
2019-04-11T15:18:00.639Z,12.90
2019-04-11T15:20:54.794Z,13.00
2019-04-11T15:23:20.667Z,12.70
2019-04-11T15:25:55.281Z,12.60
2019-04-11T15:28:25.289Z,12.60
2019-04-11T15:30:58.264Z,12.50
2019-04-11T15:33:43.569Z,12.60
2019-04-11T15:36:13.712Z,12.70
2019-04-11T15:39:01.727Z,12.60
2019-04-11T15:41:32.230Z,12.70
2019-04-11T15:44:17.495Z,12.80
2019-04-11T15:46:47.941Z,12.80
2019-04-11T15:49:33.924Z,12.80
2019-04-11T15:52:06.250Z,12.80
2019-04-11T15:54:42.139Z,12.80
2019-04-11T15:57:12.716Z,12.80
2019-04-11T15:59:49.345Z,12.60
2019-04-11T16:02:35.480Z,12.50
2019-04-11T16:05:09.978Z,12.50
2019-04-11T16:07:52.247Z,12.50
2019-04-11T16:10:22.380Z,12.60
2019-04-11T16:13:10.559Z,12.60
2019-04-11T16:15:40.653Z,12.60
2019-04-11T16:18:27.058Z,12.50
2019-04-11T16:21:00.113Z,12.40
2019-04-11T16:23:30.590Z,12.40
2019-04-11T16:25:59.031Z,12.30
2019-04-11T16:28:38.991Z,12.20
2019-04-11T16:31:09.849Z,12.20
2019-04-11T16:33:48.800Z,12.30
2019-04-11T16:36:21.279Z,12.20
2019-04-11T16:38:51.389Z,12.10
2019-04-11T16:41:37.306Z,12.10
2019-04-11T16:44:07.581Z,12.10
2019-04-11T16:46:55.638Z,12.10
2019-04-11T16:49:25.949Z,12.00
2019-04-11T16:51:54.308Z,11.90
2019-04-11T16:54:22.892Z,11.90
2019-04-11T16:56:51.731Z,11.90
2019-04-11T16:59:20.672Z,11.90
2019-04-11T17:01:53.509Z,11.80
2019-04-11T17:04:20.181Z,11.80
2019-04-11T17:07:02.081Z,11.90
2019-04-11T17:09:37.993Z,11.80
2019-04-11T17:12:06.750Z,11.90
2019-04-11T17:14:35.567Z,11.80
2019-04-11T17:17:14.556Z,11.80
2019-04-11T17:19:36.253Z,11.90
2019-04-11T17:22:05.070Z,11.80
2019-04-11T17:24:33.589Z,11.70
2019-04-11T17:27:02.071Z,11.60
2019-04-11T17:29:30.684Z,11.60
2019-04-11T17:31:59.315Z,11.60
2019-04-11T17:34:32.129Z,11.60
2019-04-11T17:36:58.210Z,11.60
2019-04-11T17:39:27.151Z,11.60
2019-04-11T17:41:55.776Z,11.60
2019-04-11T17:44:24.342Z,11.40
2019-04-11T17:46:56.404Z,11.30
2019-04-11T17:49:23.107Z,11.30
2019-04-11T17:51:56.162Z,11.20
2019-04-11T17:54:24.705Z,11.20
2019-04-11T17:56:54.530Z,11.20
2019-04-11T17:59:23.256Z,11.10
2019-04-11T18:01:52.122Z,11.00
2019-04-11T18:04:20.967Z,11.10
2019-04-11T18:06:49.753Z,11.00
2019-04-11T18:09:20.428Z,11.10
2019-04-11T18:11:48.872Z,11.00
2019-04-11T18:14:17.700Z,11.10
2019-04-11T18:16:46.451Z,11.10
2019-04-11T18:19:15.012Z,11.10
2019-04-11T18:21:43.918Z,11.10
2019-04-11T18:24:12.510Z,11.00
2019-04-11T18:26:41.122Z,11.00
2019-04-11T18:29:10.145Z,10.90
2019-04-11T18:31:38.830Z,10.90
2019-04-11T18:34:07.520Z,10.90
2019-04-11T18:36:37.343Z,10.80
2019-04-11T18:39:07.734Z,10.80
2019-04-11T18:41:36.642Z,10.90
2019-04-11T18:44:05.656Z,10.80
2019-04-11T18:46:34.269Z,10.70
2019-04-11T18:49:03.055Z,10.70
2019-04-11T18:51:32.147Z,10.60
2019-04-11T18:54:00.789Z,10.60
2019-04-11T18:56:29.717Z,10.50
2019-04-11T18:58:58.375Z,10.50
2019-04-11T19:01:27.403Z,10.40
2019-04-11T19:03:56.094Z,10.30
2019-04-11T19:06:28.009Z,10.30
2019-04-11T19:08:55.474Z,10.20
2019-04-11T19:11:24.320Z,10.10
2019-04-11T19:13:52.898Z,10.00
2019-04-11T19:16:21.824Z,10.10
2019-04-11T19:18:50.451Z,10.10
2019-04-11T19:21:21.022Z,10.20
2019-04-11T19:23:49.894Z,10.20
2019-04-11T19:26:18.919Z,10.10
2019-04-11T19:28:49.259Z,10.10
2019-04-11T19:31:18.276Z,10.00
2019-04-11T19:33:47.034Z,9.90
2019-04-11T19:36:15.504Z,9.90
2019-04-11T19:38:44.095Z,9.80
2019-04-11T19:41:16.973Z,9.80
2019-04-11T19:43:43.077Z,9.60
2019-04-11T19:46:12.344Z,9.60
2019-04-11T19:48:40.990Z,9.60
2019-04-11T19:51:11.037Z,9.60
2019-04-11T19:53:40.144Z,9.50
2019-04-11T19:56:13.511Z,9.40
2019-04-11T19:58:42.262Z,9.30
2019-04-11T20:01:10.940Z,9.10
2019-04-11T20:03:39.501Z,9.00
2019-04-11T20:06:08.060Z,8.90
2019-04-11T20:08:36.534Z,8.90
2019-04-11T20:11:05.578Z,8.80
2019-04-11T20:13:34.134Z,8.80
2019-04-11T20:16:02.971Z,8.70
2019-04-11T20:18:31.782Z,8.60
2019-04-11T20:21:00.492Z,8.40
2019-04-11T20:23:29.356Z,8.30
2019-04-11T20:25:58.212Z,8.40
2019-04-11T20:28:26.977Z,8.30
2019-04-11T20:30:55.613Z,8.20
2019-04-11T20:33:27.279Z,8.20
2019-04-11T20:35:54.627Z,8.20
2019-04-11T20:38:23.108Z,8.10
2019-04-11T20:40:52.637Z,8.00
2019-04-11T20:43:24.764Z,7.90
2019-04-11T20:45:53.588Z,7.90
2019-04-11T20:48:22.301Z,7.90
2019-04-11T20:50:51.207Z,7.80
2019-04-11T20:53:20.020Z,7.80
2019-04-11T20:55:48.540Z,7.80
2019-04-11T20:58:26.794Z,7.70
2019-04-11T21:00:50.859Z,7.60
2019-04-11T21:03:18.160Z,7.70
2019-04-11T21:05:47.304Z,7.70
2019-04-11T21:08:15.794Z,7.70
2019-04-11T21:10:44.368Z,7.70
2019-04-11T21:13:12.919Z,7.60
2019-04-11T21:15:41.556Z,7.50
2019-04-11T21:18:10.106Z,7.40
2019-04-11T21:20:39.657Z,7.30
2019-04-11T21:23:08.414Z,7.30
2019-04-11T21:25:37.013Z,7.20
2019-04-11T21:28:05.521Z,7.10
2019-04-11T21:30:34.329Z,7.20
2019-04-11T21:33:03.757Z,7.20
2019-04-11T21:35:33.494Z,7.20
2019-04-11T21:38:02.576Z,7.10
2019-04-11T21:40:31.044Z,7.00
2019-04-11T21:42:59.507Z,7.00
2019-04-11T21:45:28.283Z,7.10
2019-04-11T21:47:57.043Z,7.10
2019-04-11T21:50:25.835Z,7.10
2019-04-11T21:52:54.429Z,7.10
2019-04-11T21:55:22.904Z,7.00
2019-04-11T21:57:51.443Z,7.00
2019-04-11T22:00:27.772Z,7.10
2019-04-11T22:02:56.681Z,7.20
2019-04-11T22:05:28.970Z,7.30
2019-04-11T22:07:55.760Z,7.50
2019-04-11T22:10:24.593Z,7.80
2019-04-11T22:12:53.131Z,8.00
2019-04-11T22:15:22.036Z,8.20
2019-04-11T22:17:50.895Z,8.30
2019-04-11T22:20:19.494Z,8.30
2019-04-11T22:22:48.336Z,8.40
2019-04-11T22:25:17.254Z,8.50
2019-04-11T22:27:46.039Z,8.50
2019-04-11T22:30:17.056Z,8.60
2019-04-11T22:32:47.545Z,8.60
2019-04-11T22:35:15.978Z,8.50
2019-04-11T22:37:44.509Z,8.50
2019-04-11T22:40:13.423Z,8.50
2019-04-11T22:42:41.954Z,8.40
2019-04-11T22:45:11.036Z,8.40
2019-04-11T22:47:39.607Z,8.40
2019-04-11T22:50:10.124Z,8.50
2019-04-11T22:52:39.837Z,8.50
2019-04-11T22:55:11.240Z,8.60
2019-04-11T22:57:43.317Z,8.60
2019-04-11T23:00:14.766Z,8.60
2019-04-11T23:02:47.391Z,8.60
2019-04-11T23:05:17.303Z,8.60
2019-04-11T23:07:45.885Z,8.60
2019-04-11T23:10:17.094Z,8.60
2019-04-11T23:12:46.574Z,8.60
2019-04-11T23:15:15.704Z,8.50
2019-04-11T23:17:44.774Z,8.40
2019-04-11T23:20:14.396Z,8.50
2019-04-11T23:22:43.506Z,8.70
2019-04-11T23:25:12.085Z,8.70
2019-04-11T23:27:40.613Z,8.70
2019-04-11T23:30:10.306Z,8.80
2019-04-11T23:32:39.229Z,8.80
2019-04-11T23:35:07.978Z,8.80
2019-04-11T23:37:52.040Z,8.80
2019-04-11T23:40:21.899Z,8.80
2019-04-11T23:42:51.068Z,8.70
2019-04-11T23:45:21.919Z,8.70
2019-04-11T23:47:53.203Z,8.80
2019-04-11T23:50:24.843Z,8.80
2019-04-11T23:52:50.918Z,8.80
2019-04-11T23:55:19.384Z,8.80
2019-04-11T23:57:48.238Z,8.90
